Time;durP1;ratioP1;P1;durP2;ratioP2;P2;SDS_P1;SDS_P2;PMS_P1;PMS_P2;Temp;Humidity;BMP_temperature;BMP_pressure;BME280_temperature;BME280_humidity;BME280_pressure;Samples;Min_cycle;Max_cycle;Signal;HPM_P1;HPM_P2
2023/07/13 00:01:55;;;;;;;21.83;5.07;;;;;;;23.25;100.00;100491.25;5010119;28;20058;-77
2023/07/13 00:04:24;;;;;;;3.50;2.78;;;;;;;23.15;100.00;100516.75;5006253;28;20037;-77
2023/07/13 00:06:51;;;;;;;8.00;4.10;;;;;;;23.30;100.00;100528.50;4992566;28;20448;-76
2023/07/13 00:09:17;;;;;;;7.80;3.72;;;;;;;22.79;100.00;100401.72;4984340;28;20413;-78
2023/07/13 00:11:44;;;;;;;7.63;3.97;;;;;;;22.99;100.00;100406.06;5017161;28;20045;-76
2023/07/13 00:14:10;;;;;;;3.40;2.65;;;;;;;23.31;100.00;100472.16;5002832;28;20045;-77
2023/07/13 00:16:38;;;;;;;6.82;3.95;;;;;;;23.44;100.00;100503.69;5012970;28;20037;-77
2023/07/13 00:19:04;;;;;;;6.88;3.95;;;;;;;23.05;100.00;100424.47;5007792;28;20037;-77
2023/07/13 00:21:30;;;;;;;5.47;3.42;;;;;;;23.42;100.00;100486.84;5012008;28;20105;-77
2023/07/13 00:23:56;;;;;;;4.93;3.15;;;;;;;23.39;100.00;100483.38;5008206;28;20054;-76
2023/07/13 00:26:21;;;;;;;6.35;3.20;;;;;;;23.10;100.00;100409.03;5009222;28;20057;-77
2023/07/13 00:28:47;;;;;;;5.80;4.05;;;;;;;22.95;100.00;100394.63;5008243;28;20379;-77
2023/07/13 00:31:16;;;;;;;4.88;3.40;;;;;;;23.47;100.00;100482.09;5008901;28;20057;-76
2023/07/13 00:33:42;;;;;;;6.70;4.63;;;;;;;22.81;100.00;100395.31;4991119;28;20038;-76
2023/07/13 00:36:09;;;;;;;6.38;3.80;;;;;;;22.96;100.00;100426.63;5008724;28;20143;-76
2023/07/13 00:38:35;;;;;;;11.55;4.00;;;;;;;23.00;100.00;100461.31;5008818;28;20386;-76
2023/07/13 00:41:00;;;;;;;7.07;3.72;;;;;;;23.03;100.00;100486.09;5008926;28;20048;-77
2023/07/13 00:43:28;;;;;;;7.05;3.53;;;;;;;22.71;100.00;100444.88;5004742;28;20133;-76
2023/07/13 00:45:53;;;;;;;9.30;4.43;;;;;;;23.13;100.00;100519.53;5003946;28;20048;-78
2023/07/13 00:48:22;;;;;;;6.65;3.97;;;;;;;22.98;100.00;100496.16;5010052;28;20049;-77
2023/07/13 00:50:52;;;;;;;9.10;6.13;;;;;;;22.96;100.00;100461.44;5007568;28;20042;-77
2023/07/13 00:53:19;;;;;;;8.18;3.92;;;;;;;23.31;100.00;100480.19;5007947;28;20495;-77
2023/07/13 00:55:53;;;;;;;16.25;3.60;;;;;;;23.25;100.00;100475.19;5009208;28;20060;-77
2023/07/13 00:58:19;;;;;;;8.23;4.35;;;;;;;22.97;100.00;100439.09;5005829;28;20517;-77
2023/07/13 01:00:46;;;;;;;7.30;3.22;;;;;;;23.17;100.00;100470.22;5005899;28;20034;-77
2023/07/13 01:03:12;;;;;;;6.55;4.32;;;;;;;22.79;100.00;100442.69;5007278;28;20069;-77
2023/07/13 01:05:38;;;;;;;7.25;4.30;;;;;;;22.99;100.00;100507.75;4990125;28;20133;-76
2023/07/13 01:08:05;;;;;;;7.93;4.43;;;;;;;22.45;100.00;100420.31;5007361;28;20045;-78
2023/07/13 01:10:38;;;;;;;8.15;4.40;;;;;;;22.52;100.00;100439.56;5007455;28;20494;-77
2023/07/13 01:13:05;;;;;;;6.55;3.42;;;;;;;22.92;100.00;100512.50;5003490;28;20654;-78
2023/07/13 01:15:42;;;;;;;6.10;2.90;;;;;;;22.83;100.00;100500.47;5003532;28;20046;-77
2023/07/13 01:18:11;;;;;;;5.95;3.45;;;;;;;22.94;100.00;100535.59;5009051;28;20038;-77
2023/07/13 01:20:37;;;;;;;6.95;3.63;;;;;;;21.97;100.00;100370.94;5009377;28;20889;-76
2023/07/13 01:23:08;;;;;;;7.05;4.30;;;;;;;22.76;100.00;100513.28;5009350;28;20042;-77
2023/07/13 01:25:35;;;;;;;7.10;4.13;;;;;;;22.41;100.00;100455.31;5008800;28;20050;-77
2023/07/13 01:28:02;;;;;;;7.07;3.58;;;;;;;22.32;100.00;100441.41;5009413;28;20461;-77
2023/07/13 01:30:27;;;;;;;8.00;3.90;;;;;;;22.29;100.00;100441.56;5005954;28;20049;-77
2023/07/13 01:32:53;;;;;;;7.78;4.03;;;;;;;22.32;100.00;100446.75;5009096;28;20084;-78
2023/07/13 01:35:18;;;;;;;6.70;3.97;;;;;;;22.42;100.00;100460.56;5008978;28;20037;-77
2023/07/13 01:37:44;;;;;;;4.93;3.10;;;;;;;22.33;100.00;100439.59;5009254;28;20042;-78
2023/07/13 01:40:10;;;;;;;7.53;3.58;;;;;;;22.19;100.00;100421.53;5009128;28;20034;-78
2023/07/13 01:42:37;;;;;;;5.13;3.67;;;;;;;22.71;100.00;100511.75;5008467;28;20042;-78
2023/07/13 01:45:03;;;;;;;8.52;4.18;;;;;;;22.57;100.00;100483.03;5007058;28;20084;-77
2023/07/13 01:47:30;;;;;;;6.07;3.83;;;;;;;22.45;100.00;100475.59;5006824;28;20054;-77
2023/07/13 01:49:56;;;;;;;10.80;3.42;;;;;;;22.59;100.00;100490.97;5008987;28;20052;-78
2023/07/13 01:52:22;;;;;;;5.43;3.33;;;;;;;22.55;100.00;100495.59;5008048;28;20438;-77
2023/07/13 01:54:47;;;;;;;9.00;4.15;;;;;;;22.53;100.00;100474.28;5007701;28;20077;-77
2023/07/13 01:57:13;;;;;;;7.65;5.82;;;;;;;22.27;100.00;100416.72;5006103;28;20099;-80
2023/07/13 01:59:38;;;;;;;6.45;3.60;;;;;;;22.20;100.00;100403.72;4990179;28;20125;-78
2023/07/13 02:02:04;;;;;;;6.18;3.22;;;;;;;22.19;100.00;100418.84;5008158;28;20046;-78
2023/07/13 02:04:29;;;;;;;5.80;3.17;;;;;;;22.35;100.00;100448.44;5007844;28;20046;-78
2023/07/13 02:06:55;;;;;;;11.88;5.63;;;;;;;22.25;100.00;100439.97;5008862;28;20034;-78
2023/07/13 02:09:21;;;;;;;6.82;4.13;;;;;;;22.20;100.00;100433.97;4991065;28;20069;-77
2023/07/13 02:11:46;;;;;;;5.18;3.33;;;;;;;22.70;100.00;100512.72;5004851;28;20063;-78
2023/07/13 02:14:12;;;;;;;7.30;3.50;;;;;;;22.32;100.00;100428.06;4996669;28;20041;-78
2023/07/13 02:16:37;;;;;;;6.43;4.90;;;;;;;22.89;100.00;100504.63;4998057;28;20088;-77
2023/07/13 02:19:03;;;;;;;6.10;4.20;;;;;;;22.84;100.00;100504.88;5007257;28;20496;-78
2023/07/13 02:21:28;;;;;;;5.57;3.85;;;;;;;22.11;100.00;100378.28;5003751;28;20046;-79
2023/07/13 02:23:54;;;;;;;8.48;4.13;;;;;;;22.79;100.00;100504.22;5006109;28;20049;-79
2023/07/13 02:26:20;;;;;;;6.47;3.60;;;;;;;22.20;100.00;100417.06;5004133;28;20537;-79
2023/07/13 02:28:45;;;;;;;8.95;5.65;;;;;;;22.63;100.00;100482.72;5007058;28;20046;-77
2023/07/13 02:31:14;;;;;;;6.78;3.97;;;;;;;22.84;100.00;100515.56;4999985;28;20061;-79
2023/07/13 02:33:39;;;;;;;5.40;3.70;;;;;;;22.27;100.00;100400.69;5007917;28;20037;-81
2023/07/13 02:36:05;;;;;;;12.43;3.95;;;;;;;22.89;100.00;100505.50;5007539;28;20092;-77
2023/07/13 02:38:33;;;;;;;10.00;3.63;;;;;;;22.71;100.00;100461.81;5005335;28;20052;-78
2023/07/13 02:40:59;;;;;;;5.88;3.58;;;;;;;22.77;100.00;100471.34;5005740;28;20057;-78
2023/07/13 02:43:25;;;;;;;6.22;3.78;;;;;;;22.89;100.00;100494.78;5004366;28;20467;-78
2023/07/13 02:45:51;;;;;;;6.85;4.45;;;;;;;22.37;100.00;100400.22;5009438;28;20068;-78
2023/07/13 02:48:17;;;;;;;13.18;5.32;;;;;;;21.96;100.00;100322.91;5011767;28;20054;-76
2023/07/13 02:50:44;;;;;;;9.73;4.05;;;;;;;22.88;100.00;100484.19;5010455;28;20077;-76
2023/07/13 02:53:09;;;;;;;6.75;4.35;;;;;;;22.65;100.00;100430.00;5004536;28;20064;-78
2023/07/13 02:55:35;;;;;;;6.95;4.80;;;;;;;22.91;100.00;100466.16;5011790;28;20038;-77
2023/07/13 02:58:01;;;;;;;10.20;5.53;;;;;;;22.25;100.00;100351.78;5010395;28;20025;-76
2023/07/13 03:00:27;;;;;;;7.40;5.38;;;;;;;22.41;100.00;100372.41;5007146;28;20076;-76
2023/07/13 03:02:53;;;;;;;8.50;4.47;;;;;;;22.83;100.00;100435.38;5005660;28;20177;-76
2023/07/13 03:05:19;;;;;;;10.63;4.68;;;;;;;22.10;100.00;100323.97;5006870;28;20046;-76
2023/07/13 03:07:44;;;;;;;8.80;4.22;;;;;;;22.92;100.00;100450.97;5002883;28;20180;-76
2023/07/13 03:10:10;;;;;;;6.07;4.03;;;;;;;22.53;100.00;100380.66;5006967;28;20041;-78
2023/07/13 03:12:35;;;;;;;10.70;4.90;;;;;;;22.83;100.00;100441.59;4998908;28;20037;-77
2023/07/13 03:15:01;;;;;;;4.30;3.38;;;;;;;22.46;100.00;100370.38;5002769;28;20057;-75
2023/07/13 03:17:27;;;;;;;8.55;4.65;;;;;;;22.90;100.00;100458.22;5005719;28;20077;-76
2023/07/13 03:19:52;;;;;;;7.47;5.30;;;;;;;22.40;100.00;100384.03;5007351;28;20049;-76
2023/07/13 03:22:18;;;;;;;8.75;5.30;;;;;;;23.04;100.00;100455.75;4988780;28;20025;-76
2023/07/13 03:24:44;;;;;;;8.43;4.70;;;;;;;22.99;100.00;100424.78;5007590;28;20096;-77
2023/07/13 03:27:09;;;;;;;8.30;5.60;;;;;;;22.83;100.00;100388.09;5005152;28;20050;-78
2023/07/13 03:29:35;;;;;;;8.43;4.78;;;;;;;22.66;100.00;100362.19;4989025;28;20064;-77
2023/07/13 03:32:00;;;;;;;7.15;3.78;;;;;;;22.72;100.00;100359.19;5006647;28;20510;-76
2023/07/13 03:34:26;;;;;;;7.60;5.07;;;;;;;23.26;100.00;100451.94;5005928;28;20046;-77
2023/07/13 03:36:56;;;;;;;6.07;4.18;;;;;;;22.79;100.00;100370.47;4986693;28;20038;-76
2023/07/13 03:39:22;;;;;;;14.73;7.63;;;;;;;22.73;100.00;100360.06;5004502;28;20552;-76
2023/07/13 03:41:47;;;;;;;8.52;6.40;;;;;;;23.30;100.00;100456.22;5005575;28;20165;-75
2023/07/13 03:44:13;;;;;;;7.88;4.90;;;;;;;23.27;100.00;100449.19;5001830;28;20065;-75
2023/07/13 03:46:38;;;;;;;7.53;4.38;;;;;;;23.37;100.00;100469.19;5006430;28;20413;-75
2023/07/13 03:49:05;;;;;;;7.00;4.68;;;;;;;23.42;100.00;100463.59;5004375;28;20093;-77
2023/07/13 03:51:31;;;;;;;7.50;6.20;;;;;;;22.99;100.00;100390.84;5006705;28;20058;-77
2023/07/13 03:53:56;;;;;;;11.65;4.72;;;;;;;22.00;100.00;100218.47;4981724;28;20057;-77
2023/07/13 03:56:23;;;;;;;8.15;4.75;;;;;;;23.30;100.00;100422.25;4987459;28;20042;-76
2023/07/13 03:58:49;;;;;;;7.25;4.65;;;;;;;23.36;100.00;100435.31;5005885;28;20119;-77
2023/07/13 04:01:17;;;;;;;9.70;5.78;;;;;;;23.12;100.00;100377.72;5006318;28;20044;-75
2023/07/13 04:03:44;;;;;;;7.32;5.13;;;;;;;22.68;100.00;100297.91;5005938;28;20049;-77
2023/07/13 04:06:24;;;;;;;10.55;6.78;;;;;;;23.53;100.00;100437.09;4986321;28;20425;-77
2023/07/13 04:08:53;;;;;;;7.50;4.75;;;;;;;23.21;100.00;100371.88;5005937;28;20053;-77
2023/07/13 04:11:20;;;;;;;7.95;5.55;;;;;;;23.30;100.00;100395.47;5005812;28;20498;-76
2023/07/13 04:13:46;;;;;;;7.82;6.20;;;;;;;23.66;100.00;100437.28;4997618;28;20547;-75
2023/07/13 04:16:13;;;;;;;6.18;4.15;;;;;;;23.53;100.00;100401.38;4997756;28;20069;-76
2023/07/13 04:18:38;;;;;;;7.20;5.03;;;;;;;23.36;100.00;100370.16;4980208;28;20058;-76
2023/07/13 04:21:04;;;;;;;11.95;6.38;;;;;;;23.68;100.00;100413.97;4996866;28;20448;-80
2023/07/13 04:23:29;;;;;;;8.93;6.13;;;;;;;23.82;100.00;100432.00;4993126;28;20037;-80
2023/07/13 04:25:55;;;;;;;8.05;4.90;;;;;;;23.57;100.00;100371.69;4998908;28;20733;-78
2023/07/13 04:28:22;;;;;;;8.65;4.82;;;;;;;23.62;100.00;100382.13;5004850;28;20517;-78
2023/07/13 04:30:48;;;;;;;10.55;5.85;;;;;;;24.18;100.00;100465.75;5006990;28;20485;-79
2023/07/13 04:33:13;;;;;;;6.55;5.30;;;;;;;23.78;100.00;100392.91;5005715;28;20044;-78
2023/07/13 04:35:39;;;;;;;8.93;6.78;;;;;;;24.06;100.00;100436.97;5003520;28;20069;-78
2023/07/13 04:38:04;;;;;;;7.75;4.45;;;;;;;23.83;100.00;100379.25;5003042;28;20045;-77
2023/07/13 04:40:30;;;;;;;6.80;4.93;;;;;;;24.40;100.00;100463.63;5007236;28;20097;-77
2023/07/13 04:42:55;;;;;;;10.77;6.53;;;;;;;24.36;100.00;100447.78;5006735;28;20186;-77
2023/07/13 04:45:23;;;;;;;7.68;6.35;;;;;;;24.07;100.00;100390.41;5002064;28;20137;-78
2023/07/13 04:47:49;;;;;;;10.20;6.82;;;;;;;23.90;100.00;100377.97;5008861;28;20041;-77
2023/07/13 04:50:18;;;;;;;10.60;6.68;;;;;;;24.58;100.00;100469.78;5008865;28;20038;-78
2023/07/13 04:52:44;;;;;;;5.55;4.68;;;;;;;24.73;100.00;100469.84;5008764;28;20073;-78
2023/07/13 04:55:10;;;;;;;8.27;4.60;;;;;;;24.75;100.00;100470.63;5008876;28;20484;-78
2023/07/13 04:57:36;;;;;;;6.70;4.97;;;;;;;24.64;100.00;100437.22;5009361;28;20141;-77
2023/07/13 05:00:06;;;;;;;8.00;4.75;;;;;;;24.61;100.00;100410.56;4987763;28;20090;-79
2023/07/13 05:02:33;;;;;;;9.82;5.30;;;;;;;25.03;100.00;100459.13;5008805;28;20053;-78
2023/07/13 05:04:58;;;;;;;4.65;3.70;;;;;;;24.53;100.00;100369.91;5008464;28;20498;-79
2023/07/13 05:07:25;;;;;;;9.02;5.20;;;;;;;25.19;100.00;100465.34;5008396;28;20037;-79
2023/07/13 05:09:51;;;;;;;5.30;3.20;;;;;;;25.10;100.00;100425.59;5008957;28;20055;-79
2023/07/13 05:12:16;;;;;;;9.93;5.65;;;;;;;25.03;100.00;100357.09;5008351;28;20517;-79
2023/07/13 05:14:42;;;;;;;6.45;4.47;;;;;;;25.85;100.00;100446.97;5000186;28;20041;-79
2023/07/13 05:17:08;;;;;;;8.57;3.88;;;;;;;25.97;100.00;100437.31;5008332;28;20037;-79
2023/07/13 05:19:34;;;;;;;7.05;4.55;;;;;;;26.58;100.00;100454.84;5007427;28;20769;-79
2023/07/13 05:21:59;;;;;;;6.90;4.55;;;;;;;26.77;100.00;100437.47;5008647;28;20734;-79
2023/07/13 05:24:25;;;;;;;7.43;4.50;;;;;;;26.70;100.00;100384.03;5007961;28;20034;-78
2023/07/13 05:26:51;;;;;;;6.18;4.22;;;;;;;27.35;100.00;100438.91;5008138;28;20038;-79
2023/07/13 05:29:16;;;;;;;8.82;3.78;;;;;;;26.82;100.00;100363.50;5007336;28;20042;-78
2023/07/13 05:31:41;;;;;;;7.65;4.35;;;;;;;27.98;100.00;100451.50;5008078;28;20054;-79
2023/07/13 05:34:07;;;;;;;5.95;3.53;;;;;;;28.49;100.00;100442.41;5008062;28;20064;-79
2023/07/13 05:36:32;;;;;;;10.43;4.40;;;;;;;28.80;100.00;100446.38;5008199;28;20113;-79
2023/07/13 05:38:58;;;;;;;15.88;3.35;;;;;;;28.45;100.00;100375.22;5007922;28;20048;-79
2023/07/13 05:41:23;;;;;;;7.78;4.05;;;;;;;28.80;100.00;100395.06;5006585;28;20049;-79
2023/07/13 05:43:49;;;;;;;14.05;4.20;;;;;;;29.11;100.00;100437.81;5006801;28;20041;-77
2023/07/13 05:46:14;;;;;;;5.32;3.92;;;;;;;29.59;100.00;100445.72;5011177;28;20056;-77
2023/07/13 05:48:39;;;;;;;7.03;3.97;;;;;;;29.67;100.00;100435.22;5010785;28;20686;-77
2023/07/13 05:51:06;;;;;;;7.28;4.30;;;;;;;30.12;100.00;100459.53;5012834;28;20609;-77
2023/07/13 05:53:32;;;;;;;6.85;5.50;;;;;;;30.27;100.00;100460.16;5012964;28;20101;-77
2023/07/13 05:55:57;;;;;;;8.65;4.10;;;;;;;30.25;100.00;100441.31;5009152;28;20185;-77
2023/07/13 05:58:22;;;;;;;5.05;3.90;;;;;;;30.56;100.00;100471.31;4989435;28;20379;-78
2023/07/13 06:00:57;;;;;;;6.35;4.00;;;;;;;30.76;100.00;100475.03;5007157;28;20068;-78
2023/07/13 06:03:23;;;;;;;5.22;3.45;;;;;;;30.74;100.00;100463.47;4993283;28;20053;-77
2023/07/13 06:05:48;;;;;;;8.10;4.25;;;;;;;30.92;100.00;100469.22;5007408;28;20049;-76
2023/07/13 06:08:14;;;;;;;6.22;4.50;;;;;;;30.51;100.00;100400.41;5006544;28;20490;-80
2023/07/13 06:10:39;;;;;;;7.90;4.18;;;;;;;31.10;100.00;100472.22;4998681;28;20042;-78
2023/07/13 06:13:04;;;;;;;6.63;4.22;;;;;;;30.52;100.00;100380.44;5002948;28;20489;-77
2023/07/13 06:15:30;;;;;;;6.05;3.85;;;;;;;31.10;100.00;100473.09;4985977;28;20501;-77
2023/07/13 06:17:55;;;;;;;6.00;4.00;;;;;;;30.73;100.00;100396.72;5007369;28;20049;-77
2023/07/13 06:20:21;;;;;;;9.40;5.22;;;;;;;31.18;100.00;100468.84;5006991;28;20041;-77
2023/07/13 06:22:46;;;;;;;6.05;3.72;;;;;;;30.65;100.00;100407.38;5007335;28;20053;-78
2023/07/13 06:25:12;;;;;;;6.75;4.53;;;;;;;30.67;100.00;100406.25;5004395;28;20053;-78
2023/07/13 06:27:37;;;;;;;5.20;3.90;;;;;;;30.50;100.00;100404.94;5007743;28;20064;-78
2023/07/13 06:30:03;;;;;;;6.88;4.50;;;;;;;30.68;100.00;100415.25;5007172;28;20041;-77
2023/07/13 06:32:28;;;;;;;6.82;4.10;;;;;;;30.67;100.00;100419.81;5006559;28;20458;-78
2023/07/13 06:34:54;;;;;;;30.90;4.75;;;;;;;30.22;100.00;100349.50;5007023;28;20490;-77
2023/07/13 06:37:19;;;;;;;6.90;4.18;;;;;;;30.35;100.00;100467.66;5006608;28;20053;-80
2023/07/13 06:39:45;;;;;;;6.53;4.43;;;;;;;30.94;100.00;100466.41;5003642;28;20133;-78
2023/07/13 06:42:10;;;;;;;5.45;3.03;;;;;;;31.21;100.00;100472.19;4996268;28;20121;-79
2023/07/13 06:44:36;;;;;;;6.00;4.00;;;;;;;31.11;100.00;100474.78;4988284;28;20061;-78
2023/07/13 06:47:03;;;;;;;4.85;4.32;;;;;;;30.97;100.00;100409.22;5008811;28;20072;-78
2023/07/13 06:49:29;;;;;;;9.95;5.03;;;;;;;31.56;100.00;100476.41;5005999;28;20061;-77
2023/07/13 06:51:54;;;;;;;5.88;4.07;;;;;;;31.30;100.00;100455.13;4999572;28;20674;-78
2023/07/13 06:54:20;;;;;;;6.80;4.35;;;;;;;31.31;100.00;100469.53;5004512;28;20486;-78
2023/07/13 06:56:45;;;;;;;7.38;4.85;;;;;;;30.79;100.00;100398.94;5006715;28;20599;-79
2023/07/13 06:59:11;;;;;;;5.10;4.30;;;;;;;30.89;100.00;100421.56;5005857;28;20057;-80
2023/07/13 07:01:36;;;;;;;6.88;3.95;;;;;;;31.20;100.00;100427.06;5006246;28;20316;-78
2023/07/13 07:04:03;;;;;;;3.63;3.00;;;;;;;31.64;100.00;100479.31;5006807;28;20026;-78
2023/07/13 07:06:29;;;;;;;9.65;3.92;;;;;;;31.44;100.00;100443.06;4988145;28;20417;-79
2023/07/13 07:08:54;;;;;;;6.13;3.85;;;;;;;31.90;100.00;100474.28;5006195;28;20052;-79
2023/07/13 07:11:23;;;;;;;5.93;4.82;;;;;;;30.94;100.00;100401.34;5006465;28;20048;-77
2023/07/13 07:13:49;;;;;;;5.07;3.72;;;;;;;30.76;100.00;100455.22;5000442;28;20077;-77
2023/07/13 07:16:16;;;;;;;5.45;3.53;;;;;;;30.70;100.00;100440.34;5001220;28;20042;-77
2023/07/13 07:18:41;;;;;;;4.13;3.10;;;;;;;31.13;100.00;100452.97;5006818;28;20042;-81
2023/07/13 07:21:07;;;;;;;8.80;4.20;;;;;;;30.82;100.00;100384.25;5000042;28;20088;-79
2023/07/13 07:23:33;;;;;;;5.72;3.65;;;;;;;31.52;100.00;100443.28;5006639;28;20046;-78
2023/07/13 07:25:58;;;;;;;5.40;3.88;;;;;;;31.53;100.00;100403.44;5004369;28;20042;-77
2023/07/13 07:28:24;;;;;;;7.50;3.03;;;;;;;31.24;100.00;100398.69;5005769;28;20505;-78
2023/07/13 07:30:53;;;;;;;6.65;4.35;;;;;;;31.74;100.00;100444.94;5001597;28;20042;-78
2023/07/13 07:33:18;;;;;;;6.40;4.20;;;;;;;31.15;100.00;100369.66;5004852;28;20038;-78
2023/07/13 07:35:44;;;;;;;6.68;4.93;;;;;;;31.95;100.00;100444.03;5004640;28;20111;-77
2023/07/13 07:38:09;;;;;;;5.10;3.50;;;;;;;31.62;100.00;100369.22;4988272;28;20050;-78
2023/07/13 07:40:40;;;;;;;5.38;3.92;;;;;;;32.14;100.00;100444.13;5005764;28;20050;-78
2023/07/13 07:43:06;;;;;;;4.43;3.22;;;;;;;32.09;100.00;100437.41;5003109;28;20037;-77
2023/07/13 07:45:32;;;;;;;5.65;5.05;;;;;;;32.22;100.00;100429.88;5003332;28;20025;-77
2023/07/13 07:47:59;;;;;;;6.20;4.20;;;;;;;31.90;100.00;100368.44;5001530;28;20521;-78
2023/07/13 07:50:28;;;;;;;8.45;4.35;;;;;;;32.06;100.00;100392.38;5001698;28;20112;-71
2023/07/13 07:52:58;;;;;;;13.23;4.25;;;;;;;32.23;98.81;100436.16;5005061;28;20053;-71
2023/07/13 07:55:25;;;;;;;4.50;3.63;;;;;;;31.94;100.00;100372.59;4998827;28;20042;-71
2023/07/13 07:57:51;;;;;;;8.80;5.75;;;;;;;32.35;100.00;100430.44;5001642;28;20038;-73
2023/07/13 08:00:17;;;;;;;7.95;5.95;;;;;;;32.28;100.00;100385.84;5004765;28;20559;-72
2023/07/13 08:02:43;;;;;;;5.40;4.00;;;;;;;32.49;94.87;100445.47;5002476;28;20050;-72
2023/07/13 08:05:10;;;;;;;7.47;4.40;;;;;;;32.62;100.00;100472.44;4998274;28;20058;-73
2023/07/13 08:07:39;;;;;;;9.13;7.13;;;;;;;32.38;100.00;100388.56;5007595;28;20126;-73
2023/07/13 08:10:08;;;;;;;6.78;5.63;;;;;;;32.61;100.00;100413.63;5005813;28;20042;-73
2023/07/13 08:12:36;;;;;;;6.53;5.25;;;;;;;33.15;100.00;100449.41;4992664;28;20053;-72
2023/07/13 08:15:02;;;;;;;8.55;5.40;;;;;;;32.42;100.00;100321.22;4998431;28;20053;-72
2023/07/13 08:17:28;;;;;;;9.50;5.35;;;;;;;33.34;97.79;100449.38;5006452;28;20057;-72
2023/07/13 08:19:53;;;;;;;8.77;5.72;;;;;;;33.07;100.00;100376.72;5009255;28;20471;-73
2023/07/13 08:22:19;;;;;;;6.45;5.07;;;;;;;33.04;100.00;100422.31;5006228;28;20565;-72
2023/07/13 08:24:44;;;;;;;8.77;5.78;;;;;;;32.68;100.00;100370.44;5009122;28;20061;-75
2023/07/13 08:27:11;;;;;;;11.63;6.63;;;;;;;33.13;100.00;100444.13;5008792;28;20050;-72
2023/07/13 08:29:37;;;;;;;7.97;6.28;;;;;;;33.15;100.00;100450.25;5009154;28;20038;-73
2023/07/13 08:32:03;;;;;;;10.75;7.65;;;;;;;33.06;100.00;100377.72;5003495;28;20045;-72
2023/07/13 08:34:28;;;;;;;7.07;4.43;;;;;;;33.56;96.82;100390.16;5008900;28;20054;-72
2023/07/13 08:36:53;;;;;;;11.45;9.35;;;;;;;32.43;97.14;100426.16;5009735;28;20037;-72
2023/07/13 08:39:19;;;;;;;13.07;8.30;;;;;;;32.53;98.44;100376.31;5008747;28;20044;-72
2023/07/13 08:41:53;;;;;;;7.55;5.82;;;;;;;33.48;99.98;100418.09;5001204;28;20038;-72
2023/07/13 08:44:36;;;;;;;9.43;6.15;;;;;;;33.66;89.67;100420.09;5003458;28;20045;-72
2023/07/13 08:47:02;;;;;;;6.78;5.13;;;;;;;33.18;88.63;100367.53;5004924;28;20049;-71
2023/07/13 08:49:28;;;;;;;8.85;6.43;;;;;;;34.23;91.51;100440.75;5007585;28;20154;-72
2023/07/13 08:52:00;;;;;;;9.30;7.13;;;;;;;34.23;88.21;100438.03;5010318;28;20025;-72
2023/07/13 08:54:29;;;;;;;;;;;;;;;34.23;86.45;100428.97;5009186;28;20049;-72
2023/07/13 08:56:56;;;;;;;11.82;5.78;;;;;;;34.37;81.49;100417.59;4991385;28;19913;-71
2023/07/13 08:59:27;;;;;;;7.70;6.07;;;;;;;34.81;82.49;100371.31;5001504;28;20065;-73
2023/07/13 09:02:05;;;;;;;5.10;4.28;;;;;;;33.66;82.92;100422.81;4987866;28;20054;-72
2023/07/13 09:04:49;;;;;;;6.25;4.97;;;;;;;35.05;80.71;100427.94;5009396;28;20052;-72
2023/07/13 09:07:28;;;;;;;8.55;4.78;;;;;;;35.35;69.53;100428.50;5004382;28;20044;-72
2023/07/13 09:10:14;;;;;;;9.88;6.85;;;;;;;35.23;75.65;100436.09;4991444;28;20107;-73
2023/07/13 09:12:52;;;;;;;8.77;5.88;;;;;;;35.43;76.94;100435.91;5000743;28;20046;-72
2023/07/13 09:15:22;;;;;;;10.98;5.45;;;;;;;35.69;71.48;100370.41;5004472;28;20184;-71
2023/07/13 09:17:52;;;;;;;8.32;4.53;;;;;;;35.99;70.07;100417.25;4999674;28;20128;-71
2023/07/13 09:20:39;;;;;;;7.55;5.75;;;;;;;35.82;67.58;100411.72;4994856;28;20128;-72
2023/07/13 09:23:12;;;;;;;7.53;6.35;;;;;;;35.82;63.65;100397.22;5007445;28;20512;-71
2023/07/13 09:25:40;;;;;;;8.98;4.65;;;;;;;35.83;65.02;100379.84;4990324;28;20169;-72
2023/07/13 09:28:14;;;;;;;5.18;4.13;;;;;;;35.53;62.83;100427.63;5004356;28;20748;-72
2023/07/13 09:30:56;;;;;;;5.55;4.45;;;;;;;35.98;62.21;100360.94;5006575;28;20071;-72
2023/07/13 09:33:22;;;;;;;9.23;5.07;;;;;;;35.76;63.36;100374.19;5000566;28;20533;-72
2023/07/13 09:35:49;;;;;;;7.05;5.07;;;;;;;36.51;59.61;100415.22;4998484;28;20056;-71
2023/07/13 09:38:18;;;;;;;5.45;4.20;;;;;;;36.51;60.24;100428.88;4989896;28;20049;-72
2023/07/13 09:40:59;;;;;;;7.82;5.35;;;;;;;36.46;62.52;100434.00;5007379;28;20058;-71
2023/07/13 09:43:25;;;;;;;7.68;6.40;;;;;;;36.62;62.03;100361.25;4986018;28;20223;-72
2023/07/13 09:45:52;;;;;;;9.48;7.38;;;;;;;35.43;62.69;100341.25;4997442;28;20512;-70
2023/07/13 09:48:18;;;;;;;6.65;4.80;;;;;;;36.63;62.64;100410.31;5002499;28;20050;-73
2023/07/13 09:50:44;;;;;;;8.82;5.80;;;;;;;36.61;59.73;100406.03;4999796;28;20069;-73
2023/07/13 09:53:18;;;;;;;10.70;6.65;;;;;;;36.62;57.68;100416.81;5001678;28;20086;-73
2023/07/13 09:55:45;;;;;;;5.45;4.05;;;;;;;36.63;53.46;100366.56;4992646;28;20139;-72
2023/07/13 09:58:19;;;;;;;6.72;4.97;;;;;;;36.87;56.52;100362.09;5006747;28;20029;-75
2023/07/13 10:01:04;;;;;;;5.22;4.10;;;;;;;37.75;53.59;100427.81;4999011;28;20034;-77
2023/07/13 10:03:37;;;;;;;20.13;4.97;;;;;;;36.06;57.50;100356.34;5002947;28;20050;-77
2023/07/13 10:06:16;;;;;;;8.77;4.53;;;;;;;36.87;58.40;100367.56;4994523;28;20049;-81
2023/07/13 10:08:42;;;;;;;6.47;4.82;;;;;;;37.57;58.01;100388.84;5004782;28;20054;-80
2023/07/13 10:11:17;;;;;;;6.10;4.03;;;;;;;37.94;58.13;100418.31;5007480;28;20120;-79
2023/07/13 10:13:55;;;;;;;5.13;3.88;;;;;;;36.95;58.83;100403.13;4993061;28;20054;-78
2023/07/13 10:16:22;;;;;;;6.75;5.30;;;;;;;38.12;57.45;100418.09;5002351;28;20033;-81
2023/07/13 10:18:58;;;;;;;7.28;5.10;;;;;;;38.06;53.70;100427.03;5007066;28;20121;-79
2023/07/13 10:21:35;;;;;;;9.40;4.50;;;;;;;37.98;48.14;100353.91;5002665;28;20042;-79
2023/07/13 10:24:20;;;;;;;4.68;3.92;;;;;;;38.56;47.10;100376.34;4988703;28;20169;-80
2023/07/13 10:26:57;;;;;;;5.70;3.70;;;;;;;38.71;48.60;100400.25;4999595;28;20065;-81
2023/07/13 10:29:26;;;;;;;6.88;5.07;;;;;;;38.64;49.67;100400.97;4991527;28;20049;-80
2023/07/13 10:31:51;;;;;;;9.98;4.65;;;;;;;36.98;49.28;100340.72;5006281;28;20401;-82
2023/07/13 10:34:17;;;;;;;5.30;3.75;;;;;;;37.83;49.45;100321.97;5007067;28;20026;-80
2023/07/13 10:36:48;;;;;;;6.13;4.55;;;;;;;37.90;47.60;100377.75;4997343;28;20676;-82
2023/07/13 10:39:22;;;;;;;6.80;3.63;;;;;;;38.82;46.28;100375.97;4997597;28;20069;-82
2023/07/13 10:41:53;;;;;;;5.13;3.17;;;;;;;37.79;45.92;100336.06;4981677;28;20104;-81
2023/07/13 10:44:26;;;;;;;3.47;2.80;;;;;;;37.94;47.73;100360.78;5004765;28;20037;-82
2023/07/13 10:46:55;;;;;;;10.35;4.20;;;;;;;38.50;45.90;100341.44;4984860;28;20467;-81
2023/07/13 10:49:21;;;;;;;13.07;3.95;;;;;;;37.76;45.90;100288.97;5004495;28;20034;-81
2023/07/13 10:51:47;;;;;;;13.63;2.92;;;;;;;37.87;45.63;100326.06;5000496;28;20042;-82
2023/07/13 10:54:18;;;;;;;8.35;3.40;;;;;;;37.85;44.30;100350.91;5003724;28;20090;-82
2023/07/13 10:56:45;;;;;;;5.90;4.23;;;;;;;39.00;44.36;100350.09;5011392;28;20046;-80
2023/07/13 10:59:28;;;;;;;4.18;3.25;;;;;;;38.89;43.21;100351.38;5012120;28;20056;-83
2023/07/13 11:02:02;;;;;;;28.20;3.05;;;;;;;38.57;42.59;100347.91;5005584;28;20070;-82
2023/07/13 11:04:38;;;;;;;6.50;3.20;;;;;;;39.24;42.45;100319.66;5005894;28;20061;-80
2023/07/13 11:07:37;;;;;;;9.88;3.53;;;;;;;39.04;40.50;100330.34;5004752;28;20033;-80
2023/07/13 11:10:05;;;;;;;4.63;2.17;;;;;;;37.56;41.11;100319.56;4998688;28;20635;-79
2023/07/13 11:12:53;;;;;;;5.35;3.38;;;;;;;38.10;42.16;100318.75;5000598;28;20130;-81
2023/07/13 11:15:47;;;;;;;9.13;3.80;;;;;;;38.28;42.09;100241.69;4994244;28;20069;-79
2023/07/13 11:18:23;;;;;;;5.32;3.38;;;;;;;38.79;43.18;100238.31;5003231;28;20041;-79
2023/07/13 11:20:48;;;;;;;4.80;2.40;;;;;;;39.02;42.12;100252.81;5003639;28;20128;-82
2023/07/13 11:23:17;;;;;;;3.50;3.20;;;;;;;38.66;41.98;100314.91;4994606;28;20596;-81